Time;durP1;ratioP1;P1;durP2;ratioP2;P2;SDS_P1;SDS_P2;PMS_P1;PMS_P2;Temp;Humidity;BMP_temperature;BMP_pressure;BME280_temperature;BME280_humidity;BME280_pressure;Samples;Min_cycle;Max_cycle;Signal;HPM_P1;HPM_P2
2021/09/29 00:02:15;;;;;;;7.78;5.13;;;13.30;75.00;;;;;;5054674;28;20033;-40
2021/09/29 00:04:41;;;;;;;7.80;4.95;;;13.30;75.00;;;;;;5054947;28;20025;-38
2021/09/29 00:07:07;;;;;;;7.13;4.82;;;13.20;75.00;;;;;;5054590;28;20084;-38
2021/09/29 00:09:32;;;;;;;10.32;5.30;;;13.20;75.10;;;;;;5054917;28;20029;-38
2021/09/29 00:11:58;;;;;;;8.60;5.10;;;13.30;75.20;;;;;;5054691;28;20074;-39
2021/09/29 00:14:24;;;;;;;10.02;5.18;;;13.20;75.20;;;;;;5055130;28;20082;-39
2021/09/29 00:16:50;;;;;;;10.57;5.45;;;13.20;75.20;;;;;;5054971;28;20031;-38
2021/09/29 00:19:16;;;;;;;10.68;5.40;;;13.20;75.20;;;;;;5055359;28;20044;-39
2021/09/29 00:21:42;;;;;;;10.88;6.00;;;13.30;75.30;;;;;;5054858;28;20029;-39
2021/09/29 00:24:07;;;;;;;11.35;5.82;;;13.20;75.30;;;;;;5055221;28;20048;-38
2021/09/29 00:26:33;;;;;;;8.65;5.00;;;13.20;75.30;;;;;;5057067;28;20033;-38
2021/09/29 00:28:59;;;;;;;10.93;5.35;;;13.20;75.20;;;;;;5058760;28;20036;-38
2021/09/29 00:31:34;;;;;;;7.03;4.75;;;13.20;75.30;;;;;;5058383;28;20249;-37
2021/09/29 00:34:21;;;;;;;9.77;5.65;;;13.20;75.30;;;;;;5058763;28;20413;-38
2021/09/29 00:36:47;;;;;;;7.75;5.40;;;13.20;75.30;;;;;;5058451;28;20079;-38
2021/09/29 00:39:13;;;;;;;9.85;4.65;;;13.30;75.30;;;;;;5058781;28;20063;-37
2021/09/29 00:41:40;;;;;;;7.15;4.60;;;13.20;75.40;;;;;;5058205;28;20029;-39
2021/09/29 00:44:07;;;;;;;8.60;4.88;;;13.20;75.40;;;;;;5058476;28;20039;-37
2021/09/29 00:46:33;;;;;;;11.00;4.82;;;13.20;75.40;;;;;;5058242;28;20025;-38
2021/09/29 00:48:59;;;;;;;8.60;4.75;;;13.20;75.30;;;;;;5058310;28;20440;-38
2021/09/29 00:51:25;;;;;;;8.18;4.80;;;13.20;75.60;;;;;;5057985;28;20036;-39
2021/09/29 00:53:52;;;;;;;6.90;4.85;;;13.20;75.90;;;;;;5057873;28;20041;-38
2021/09/29 00:56:19;;;;;;;8.32;5.55;;;13.20;76.30;;;;;;5057908;28;20048;-39
2021/09/29 00:58:45;;;;;;;10.38;5.70;;;13.20;76.40;;;;;;5058488;28;20033;-39
2021/09/29 01:01:11;;;;;;;8.98;5.47;;;13.20;76.70;;;;;;5057738;28;20402;-39
2021/09/29 01:03:38;;;;;;;7.45;5.20;;;13.20;76.80;;;;;;5058108;28;20075;-39
2021/09/29 01:06:12;;;;;;;10.07;6.60;;;13.20;77.60;;;;;;5057800;28;20039;-39
2021/09/29 01:08:48;;;;;;;8.13;5.45;;;13.20;77.40;;;;;;5058247;28;20029;-38
2021/09/29 01:11:27;;;;;;;8.65;5.70;;;13.20;77.30;;;;;;5056482;28;20060;-39
2021/09/29 01:14:04;;;;;;;7.18;5.28;;;13.20;77.10;;;;;;5058006;28;20109;-40
2021/09/29 01:16:33;;;;;;;11.18;6.10;;;13.10;77.10;;;;;;5057672;28;20306;-40
2021/09/29 01:19:00;;;;;;;11.07;5.75;;;13.10;77.10;;;;;;5056557;28;20444;-40
2021/09/29 01:21:34;;;;;;;9.90;6.07;;;13.10;77.00;;;;;;5057234;28;20036;-40
2021/09/29 01:24:07;;;;;;;8.48;5.72;;;13.10;77.10;;;;;;5057689;28;20301;-40
2021/09/29 01:26:36;;;;;;;9.00;6.63;;;13.10;77.00;;;;;;5057627;28;20029;-40
2021/09/29 01:29:03;;;;;;;10.45;6.45;;;13.10;77.10;;;;;;5057680;28;20409;-39
2021/09/29 01:31:29;;;;;;;8.23;6.15;;;13.00;77.10;;;;;;5057240;28;20033;-39
2021/09/29 01:33:56;;;;;;;9.40;5.70;;;13.00;77.10;;;;;;5057451;28;20033;-40
2021/09/29 01:36:23;;;;;;;9.48;6.43;;;13.00;77.20;;;;;;5057387;28;20341;-39
2021/09/29 01:38:55;;;;;;;9.45;6.40;;;13.00;77.30;;;;;;5056662;28;20036;-40
2021/09/29 01:41:30;;;;;;;9.57;6.20;;;13.00;77.30;;;;;;5055792;28;20055;-40
2021/09/29 01:43:56;;;;;;;8.55;5.70;;;13.00;77.20;;;;;;5057406;28;20032;-39
2021/09/29 01:46:24;;;;;;;8.20;5.80;;;13.00;77.20;;;;;;5056929;28;20040;-40
2021/09/29 01:48:58;;;;;;;9.90;5.93;;;13.00;77.20;;;;;;5056897;28;20033;-39
2021/09/29 01:51:26;;;;;;;10.25;5.82;;;12.90;77.00;;;;;;5057150;28;20421;-38
2021/09/29 01:53:55;;;;;;;9.05;6.45;;;12.90;77.10;;;;;;5056589;28;20077;-39
2021/09/29 01:56:22;;;;;;;11.80;7.57;;;12.90;77.00;;;;;;5056699;28;20452;-39
2021/09/29 01:58:47;;;;;;;9.77;5.82;;;12.90;76.90;;;;;;5056942;28;20028;-40
2021/09/29 02:01:13;;;;;;;9.13;6.05;;;12.90;77.00;;;;;;5056582;28;20033;-37
2021/09/29 02:03:44;;;;;;;7.00;5.53;;;12.90;77.00;;;;;;5057069;28;20028;-38
2021/09/29 02:06:10;;;;;;;9.80;5.53;;;12.90;76.90;;;;;;5056602;28;20079;-37
2021/09/29 02:08:35;;;;;;;7.88;5.78;;;12.90;76.90;;;;;;5056713;28;20037;-37
2021/09/29 02:11:01;;;;;;;9.35;6.10;;;12.90;76.90;;;;;;5056328;28;20035;-38
2021/09/29 02:13:27;;;;;;;12.82;6.35;;;12.90;76.90;;;;;;5056725;28;20029;-37
2021/09/29 02:15:52;;;;;;;7.75;5.38;;;12.90;77.00;;;;;;5056158;28;20039;-39
2021/09/29 02:18:18;;;;;;;8.63;5.28;;;12.90;77.00;;;;;;5056838;28;20033;-39
2021/09/29 02:20:44;;;;;;;11.00;5.53;;;12.80;76.90;;;;;;5056111;28;20367;-37
2021/09/29 02:23:09;;;;;;;10.77;5.82;;;12.90;77.00;;;;;;5056584;28;20290;-38
2021/09/29 02:25:35;;;;;;;10.90;6.35;;;12.90;76.90;;;;;;5056189;28;20044;-38
2021/09/29 02:28:01;;;;;;;7.82;5.43;;;12.80;76.90;;;;;;5056311;28;20059;-37
2021/09/29 02:30:26;;;;;;;8.77;5.35;;;12.80;77.00;;;;;;5056424;28;20056;-39
2021/09/29 02:32:52;;;;;;;8.90;5.82;;;12.80;76.70;;;;;;5056025;28;20028;-37
2021/09/29 02:35:18;;;;;;;11.38;6.07;;;12.80;76.60;;;;;;5055957;28;20111;-40
2021/09/29 02:37:43;;;;;;;7.85;5.55;;;12.80;76.70;;;;;;5056174;28;20020;-39
2021/09/29 02:40:09;;;;;;;9.93;5.32;;;12.80;76.70;;;;;;5056241;28;20113;-38
2021/09/29 02:42:35;;;;;;;8.57;5.40;;;12.80;76.70;;;;;;5055701;28;20067;-38
2021/09/29 02:45:01;;;;;;;8.15;5.85;;;12.80;76.60;;;;;;5055900;28;20051;-40
2021/09/29 02:47:27;;;;;;;8.40;5.22;;;12.70;76.50;;;;;;5055951;28;20025;-40
2021/09/29 02:49:53;;;;;;;10.55;5.70;;;12.70;76.50;;;;;;5055027;28;20033;-40
2021/09/29 02:52:18;;;;;;;7.20;5.40;;;12.70;76.40;;;;;;5055776;28;20082;-39
2021/09/29 02:54:44;;;;;;;8.57;5.95;;;12.70;76.60;;;;;;5055971;28;20049;-39
2021/09/29 02:57:10;;;;;;;7.65;6.05;;;12.70;76.40;;;;;;5055314;28;20364;-38
2021/09/29 02:59:36;;;;;;;9.73;5.03;;;12.70;76.40;;;;;;5055939;28;20064;-39
2021/09/29 03:02:02;;;;;;;8.02;6.35;;;12.70;76.30;;;;;;5055405;28;20025;-39
2021/09/29 03:04:27;;;;;;;8.65;5.30;;;12.70;76.20;;;;;;5055731;28;20112;-39
2021/09/29 03:06:53;;;;;;;9.27;5.72;;;12.70;76.20;;;;;;5055781;28;20090;-37
2021/09/29 03:09:19;;;;;;;9.20;5.45;;;12.60;76.10;;;;;;5056011;28;20037;-37
2021/09/29 03:11:44;;;;;;;8.75;5.72;;;12.70;76.10;;;;;;5055186;28;20055;-38
2021/09/29 03:14:10;;;;;;;7.18;5.25;;;12.60;76.00;;;;;;5055969;28;20025;-37
2021/09/29 03:16:36;;;;;;;6.63;5.35;;;12.60;76.00;;;;;;5055503;28;20067;-38
2021/09/29 03:19:03;;;;;;;7.65;5.43;;;12.60;75.80;;;;;;5055653;28;20064;-37
2021/09/29 03:21:28;;;;;;;9.15;5.85;;;12.60;75.90;;;;;;5055371;28;20041;-39
2021/09/29 03:23:54;;;;;;;10.38;6.25;;;12.60;76.00;;;;;;5055701;28;20338;-39
2021/09/29 03:26:20;;;;;;;8.00;5.93;;;12.60;76.00;;;;;;5055530;28;20036;-38
2021/09/29 03:28:46;;;;;;;7.93;5.30;;;12.60;76.00;;;;;;5055868;28;20325;-37
2021/09/29 03:31:13;;;;;;;9.07;6.05;;;12.60;76.10;;;;;;5055296;28;20122;-39
2021/09/29 03:33:39;;;;;;;7.25;5.35;;;12.60;76.00;;;;;;5055542;28;20032;-37
2021/09/29 03:36:04;;;;;;;7.75;5.63;;;12.50;75.90;;;;;;5054964;28;20041;-40
2021/09/29 03:38:30;;;;;;;7.40;5.55;;;12.50;75.80;;;;;;5055781;28;20025;-38
2021/09/29 03:40:56;;;;;;;8.90;5.65;;;12.50;75.70;;;;;;5054824;28;20409;-37
2021/09/29 03:43:22;;;;;;;8.70;5.75;;;12.50;75.70;;;;;;5055691;28;20075;-38
2021/09/29 03:45:48;;;;;;;14.95;7.40;;;12.50;75.70;;;;;;5055082;28;20444;-39
2021/09/29 03:48:13;;;;;;;11.90;6.75;;;12.40;75.70;;;;;;5055480;28;20311;-38
2021/09/29 03:50:39;;;;;;;9.43;5.72;;;12.40;75.50;;;;;;5055432;28;20325;-37
2021/09/29 03:53:05;;;;;;;8.95;5.88;;;12.40;76.00;;;;;;5054719;28;20064;-38
2021/09/29 03:55:30;;;;;;;9.32;6.43;;;12.40;75.50;;;;;;5054945;28;20322;-37
2021/09/29 03:57:56;;;;;;;7.75;5.95;;;12.30;75.50;;;;;;5055099;28;20060;-40
2021/09/29 04:00:22;;;;;;;11.10;5.78;;;12.30;75.30;;;;;;5055796;28;20032;-36
2021/09/29 04:02:48;;;;;;;7.72;5.82;;;12.30;75.50;;;;;;5058725;28;20408;-38
2021/09/29 04:05:13;;;;;;;12.18;8.70;;;12.30;75.40;;;;;;5058960;28;20037;-38
2021/09/29 04:07:39;;;;;;;9.68;5.90;;;12.20;75.50;;;;;;5058863;28;20028;-39
2021/09/29 04:10:06;;;;;;;9.32;5.85;;;12.20;75.40;;;;;;5058848;28;20163;-39
2021/09/29 04:12:32;;;;;;;9.60;5.85;;;12.20;75.50;;;;;;5058941;28;20413;-38
2021/09/29 04:14:58;;;;;;;8.30;4.82;;;12.20;75.50;;;;;;5058454;28;20111;-39
2021/09/29 04:17:24;;;;;;;6.22;4.10;;;12.20;75.50;;;;;;5058696;28;20035;-37
2021/09/29 04:19:49;;;;;;;7.53;5.05;;;12.20;75.40;;;;;;5057431;28;20116;-37
2021/09/29 04:22:15;;;;;;;10.07;5.15;;;12.10;75.30;;;;;;5058108;28;20051;-37
2021/09/29 04:24:44;;;;;;;7.75;4.35;;;12.10;75.40;;;;;;5058359;28;20062;-38
2021/09/29 04:27:11;;;;;;;6.35;4.15;;;12.10;75.50;;;;;;5058363;28;20033;-38
2021/09/29 04:29:38;;;;;;;6.57;4.10;;;12.10;75.60;;;;;;5058099;28;20036;-39
2021/09/29 04:32:05;;;;;;;7.47;4.55;;;12.10;75.40;;;;;;5058196;28;20029;-38
2021/09/29 04:34:31;;;;;;;8.13;4.63;;;12.10;75.30;;;;;;5058169;28;20325;-38
2021/09/29 04:36:56;;;;;;;8.77;5.18;;;12.10;75.30;;;;;;5058167;28;20033;-40
2021/09/29 04:39:22;;;;;;;11.50;7.75;;;12.00;75.20;;;;;;5058651;28;20029;-37
2021/09/29 04:41:48;;;;;;;6.38;4.45;;;12.10;75.30;;;;;;5057743;28;20043;-40
2021/09/29 04:44:13;;;;;;;11.38;5.65;;;12.10;75.40;;;;;;5058417;28;20507;-37
2021/09/29 04:46:39;;;;;;;10.43;4.45;;;12.10;75.40;;;;;;5057924;28;20040;-37
2021/09/29 04:49:04;;;;;;;11.38;5.28;;;12.10;75.30;;;;;;5058288;28;20037;-37
2021/09/29 04:51:30;;;;;;;12.75;4.88;;;12.10;75.30;;;;;;5057517;28;20445;-40
2021/09/29 04:53:56;;;;;;;8.90;5.47;;;12.10;75.20;;;;;;5057601;28;20121;-39
2021/09/29 04:56:22;;;;;;;8.00;4.40;;;12.00;75.10;;;;;;5057700;28;20044;-38
2021/09/29 04:58:47;;;;;;;8.70;5.18;;;12.10;75.60;;;;;;5057450;28;20435;-38
2021/09/29 05:01:13;;;;;;;7.40;5.05;;;12.10;75.00;;;;;;5057529;28;20025;-38
2021/09/29 05:03:39;;;;;;;6.57;4.80;;;12.10;75.00;;;;;;5057992;28;20428;-38
2021/09/29 05:06:05;;;;;;;7.13;4.78;;;12.00;74.70;;;;;;5057140;28;20041;-39
2021/09/29 05:08:34;;;;;;;10.27;6.20;;;12.00;74.80;;;;;;5058026;28;20029;-37
2021/09/29 05:11:24;;;;;;;8.65;5.15;;;12.00;75.00;;;;;;5054644;28;20409;-39
2021/09/29 05:13:50;;;;;;;10.07;5.57;;;12.00;74.70;;;;;;5045934;28;20056;-38
2021/09/29 05:16:16;;;;;;;9.27;5.88;;;12.00;74.80;;;;;;5037441;28;20361;-38
2021/09/29 05:18:42;;;;;;;7.97;5.80;;;12.00;74.70;;;;;;5037609;28;20033;-38
2021/09/29 05:21:08;;;;;;;10.57;5.72;;;12.00;74.80;;;;;;5037259;28;20025;-40
2021/09/29 05:23:33;;;;;;;11.68;6.15;;;12.00;74.80;;;;;;5037679;28;20042;-39
2021/09/29 05:25:59;;;;;;;8.45;5.40;;;12.10;74.90;;;;;;5037017;28;20128;-39
2021/09/29 05:28:31;;;;;;;8.10;5.65;;;12.10;74.90;;;;;;5037838;28;20037;-38
2021/09/29 05:30:57;;;;;;;8.73;6.63;;;12.10;74.90;;;;;;5037293;28;20483;-38
2021/09/29 05:33:23;;;;;;;8.32;6.20;;;12.10;74.80;;;;;;5037412;28;20041;-37
2021/09/29 05:35:49;;;;;;;10.73;6.60;;;12.10;74.70;;;;;;5036839;28;20037;-37
2021/09/29 05:38:15;;;;;;;10.00;6.18;;;12.20;74.80;;;;;;5040784;28;20112;-38
2021/09/29 05:40:41;;;;;;;13.15;7.38;;;12.20;74.60;;;;;;5045391;28;20368;-37
2021/09/29 05:43:06;;;;;;;13.88;6.97;;;12.30;74.50;;;;;;5056739;28;20044;-37
2021/09/29 05:45:32;;;;;;;10.40;6.13;;;12.30;74.40;;;;;;5056981;28;20321;-40
2021/09/29 05:47:58;;;;;;;10.48;7.25;;;12.30;74.40;;;;;;5056825;28;20103;-39
2021/09/29 05:50:24;;;;;;;7.70;5.80;;;12.40;74.40;;;;;;5056619;28;20033;-39
2021/09/29 05:52:50;;;;;;;7.97;5.43;;;12.50;74.30;;;;;;5056537;28;20353;-38
2021/09/29 05:55:16;;;;;;;10.35;7.18;;;12.50;74.10;;;;;;5056385;28;20044;-39
2021/09/29 05:57:42;;;;;;;10.10;6.13;;;12.50;73.90;;;;;;5056485;28;20044;-38
2021/09/29 06:00:08;;;;;;;12.93;6.53;;;12.60;73.80;;;;;;5056276;28;20041;-37
2021/09/29 06:02:33;;;;;;;7.55;5.38;;;12.60;73.60;;;;;;5056421;28;20317;-38
2021/09/29 06:04:59;;;;;;;7.65;5.50;;;12.60;73.50;;;;;;5056700;28;20037;-37
2021/09/29 06:07:25;;;;;;;8.65;5.25;;;12.70;73.30;;;;;;5056403;28;20029;-37
2021/09/29 06:09:50;;;;;;;11.88;7.13;;;12.70;73.00;;;;;;5056159;28;20057;-37
2021/09/29 06:12:16;;;;;;;9.27;6.00;;;12.80;73.00;;;;;;5043756;28;20314;-39
2021/09/29 06:14:48;;;;;;;14.15;8.30;;;12.80;73.10;;;;;;5036482;28;20029;-40
2021/09/29 06:17:23;;;;;;;13.25;8.23;;;12.80;72.80;;;;;;5036142;28;20033;-39
2021/09/29 06:19:53;;;;;;;11.73;8.80;;;12.90;72.90;;;;;;5036399;28;20049;-40
2021/09/29 06:22:20;;;;;;;14.07;8.25;;;12.90;72.80;;;;;;5036225;28;20052;-38
2021/09/29 06:24:46;;;;;;;9.27;6.25;;;12.90;72.70;;;;;;5035112;28;20095;-39
2021/09/29 06:27:11;;;;;;;13.25;9.18;;;13.00;72.70;;;;;;5036190;28;20104;-38
2021/09/29 06:29:37;;;;;;;33.85;22.15;;;13.00;72.70;;;;;;5036013;28;20111;-37
2021/09/29 06:32:03;;;;;;;12.68;8.95;;;13.10;72.60;;;;;;5035524;28;20065;-39
2021/09/29 06:34:30;;;;;;;18.63;11.52;;;13.10;72.50;;;;;;5035841;28;20083;-37
2021/09/29 06:36:56;;;;;;;11.57;7.53;;;13.10;72.40;;;;;;5035431;28;20039;-38
2021/09/29 06:39:22;;;;;;;11.13;8.05;;;13.20;72.40;;;;;;5035937;28;20116;-39
2021/09/29 06:41:48;;;;;;;9.27;6.85;;;13.20;72.10;;;;;;5035696;28;20105;-36
2021/09/29 06:44:14;;;;;;;9.10;5.82;;;13.30;71.90;;;;;;5036091;28;20481;-37
2021/09/29 06:46:40;;;;;;;11.77;8.05;;;13.40;71.70;;;;;;5035783;28;20040;-38
2021/09/29 06:49:06;;;;;;;11.40;8.05;;;13.40;71.50;;;;;;5035933;28;20026;-37
2021/09/29 06:51:32;;;;;;;10.18;6.60;;;13.50;71.40;;;;;;5035710;28;20056;-37
2021/09/29 06:53:58;;;;;;;13.20;9.00;;;13.50;71.10;;;;;;5034308;28;20046;-39
2021/09/29 06:56:23;;;;;;;9.32;5.75;;;13.50;71.10;;;;;;5035356;28;20052;-40
2021/09/29 06:58:52;;;;;;;14.60;10.35;;;13.60;70.90;;;;;;5035846;28;20052;-38
2021/09/29 07:01:18;;;;;;;14.48;9.45;;;13.60;71.00;;;;;;5033676;28;20388;-38
2021/09/29 07:03:44;;;;;;;11.80;8.35;;;13.70;70.80;;;;;;5035723;28;20343;-38
2021/09/29 07:06:10;;;;;;;11.10;8.48;;;13.70;70.70;;;;;;5035031;28;20053;-39
2021/09/29 07:08:36;;;;;;;11.73;8.20;;;13.80;70.70;;;;;;5035902;28;20040;-39
2021/09/29 07:11:02;;;;;;;8.80;6.38;;;13.80;70.60;;;;;;5035438;28;20321;-38
2021/09/29 07:13:28;;;;;;;7.78;5.53;;;13.90;70.20;;;;;;5035826;28;20041;-38
2021/09/29 07:15:54;;;;;;;7.18;5.50;;;13.90;70.00;;;;;;5035415;28;20318;-38
2021/09/29 07:18:19;;;;;;;6.40;4.95;;;14.00;70.00;;;;;;5035846;28;20410;-39
2021/09/29 07:20:45;;;;;;;12.32;6.72;;;14.00;69.70;;;;;;5035069;28;20052;-40
2021/09/29 07:23:11;;;;;;;6.97;5.35;;;14.00;69.70;;;;;;5040372;28;20424;-40
2021/09/29 07:25:38;;;;;;;12.30;6.47;;;14.00;69.60;;;;;;5054851;28;20322;-39
2021/09/29 07:28:05;;;;;;;25.85;6.18;;;14.10;69.70;;;;;;5035640;28;20029;-38
2021/09/29 07:30:31;;;;;;;11.98;6.00;;;14.10;69.60;;;;;;5034981;28;20292;-40
2021/09/29 07:33:02;;;;;;;6.80;5.00;;;14.20;69.50;;;;;;5051137;28;20467;-40
2021/09/29 07:35:28;;;;;;;10.00;5.60;;;14.20;69.40;;;;;;5037407;28;20424;-37
2021/09/29 07:37:54;;;;;;;7.80;5.43;;;14.20;69.10;;;;;;5039584;28;20367;-40
2021/09/29 07:40:20;;;;;;;7.72;5.60;;;14.30;68.90;;;;;;5039415;28;20021;-37
2021/09/29 07:42:45;;;;;;;14.32;6.05;;;14.40;68.90;;;;;;5039249;28;20029;-38
2021/09/29 07:45:11;;;;;;;13.90;6.82;;;14.40;68.90;;;;;;5039210;28;20049;-40
2021/09/29 07:47:37;;;;;;;10.73;6.50;;;14.40;68.70;;;;;;5039212;28;20388;-36
2021/09/29 07:50:05;;;;;;;12.35;9.23;;;14.40;68.60;;;;;;5039171;28;20112;-38
2021/09/29 07:52:31;;;;;;;31.88;20.08;;;14.50;68.20;;;;;;5038672;28;20040;-38
2021/09/29 07:54:57;;;;;;;14.90;10.93;;;14.50;68.10;;;;;;5038738;28;20034;-40
2021/09/29 07:57:22;;;;;;;19.27;14.05;;;14.50;68.20;;;;;;5038997;28;20061;-38
2021/09/29 07:59:48;;;;;;;12.15;8.70;;;14.50;68.10;;;;;;5038836;28;20040;-39
2021/09/29 08:02:14;;;;;;;10.77;6.97;;;14.60;67.90;;;;;;5038525;28;20021;-39
2021/09/29 08:04:39;;;;;;;10.07;6.47;;;14.60;67.70;;;;;;5038656;28;20036;-38
2021/09/29 08:07:05;;;;;;;7.38;6.00;;;14.60;67.50;;;;;;5038795;28;20034;-39
2021/09/29 08:09:32;;;;;;;9.68;5.30;;;14.60;67.40;;;;;;5038775;28;20406;-39
2021/09/29 08:11:57;;;;;;;31.23;21.10;;;14.60;67.30;;;;;;5046015;28;20028;-40
2021/09/29 08:14:23;;;;;;;18.27;13.70;;;14.60;67.30;;;;;;5058586;28;20376;-38
2021/09/29 08:16:49;;;;;;;15.02;8.93;;;14.70;67.20;;;;;;5058208;28;20038;-38
2021/09/29 08:19:15;;;;;;;12.88;8.32;;;14.70;66.90;;;;;;5058848;28;20032;-39
2021/09/29 08:21:44;;;;;;;12.63;8.77;;;14.70;66.80;;;;;;5054602;28;20037;-37
2021/09/29 08:24:14;;;;;;;9.20;6.70;;;14.70;66.60;;;;;;5054478;28;20061;-37
2021/09/29 08:32:08;;;;;;;20.88;9.23;;;14.70;66.50;;;;;;5037999;28;20047;-37
2021/09/29 08:34:57;;;;;;;12.02;7.20;;;14.70;66.30;;;;;;5038535;28;20033;-38
2021/09/29 08:37:47;;;;;;;7.78;5.93;;;14.70;66.30;;;;;;5037896;28;20030;-38
2021/09/29 08:40:28;;;;;;;16.83;10.48;;;14.70;66.30;;;;;;5037912;28;20065;-38
2021/09/29 08:43:08;;;;;;;10.57;6.10;;;14.60;66.40;;;;;;5037945;28;20112;-40
2021/09/29 08:56:10;;;;;;;9.88;6.90;;;14.60;67.20;;;;;;5037695;28;20132;-38
2021/09/29 09:17:35;;;;;;;12.73;8.73;;;14.90;66.20;;;;;;5037877;28;20037;-37
2021/09/29 09:20:21;;;;;;;12.43;7.28;;;15.00;66.00;;;;;;5037199;28;20085;-38
2021/09/29 09:22:55;;;;;;;11.88;7.95;;;15.10;66.10;;;;;;5037267;28;20059;-38
2021/09/29 09:25:32;;;;;;;13.63;8.80;;;15.10;65.50;;;;;;5037585;28;20041;-38
2021/09/29 09:27:58;;;;;;;8.70;6.90;;;15.20;65.40;;;;;;5037226;28;20333;-40
2021/09/29 09:30:33;;;;;;;10.98;7.10;;;15.30;65.20;;;;;;5037395;28;20026;-40
2021/09/29 09:32:59;;;;;;;9.43;6.60;;;15.30;64.80;;;;;;5037009;28;20021;-40
2021/09/29 09:35:29;;;;;;;9.60;6.07;;;15.40;65.00;;;;;;5036945;28;20161;-40
2021/09/29 09:37:59;;;;;;;8.75;6.10;;;15.50;65.10;;;;;;5037058;28;20026;-39
2021/09/29 09:40:31;;;;;;;9.18;6.43;;;15.60;65.10;;;;;;5036807;28;20033;-40
2021/09/29 09:42:57;;;;;;;14.45;7.07;;;15.60;64.70;;;;;;5036806;28;20026;-40
2021/09/29 09:45:53;;;;;;;10.82;7.72;;;15.70;64.50;;;;;;5037011;28;20044;-38
2021/09/29 09:48:24;;;;;;;10.07;6.35;;;15.70;64.30;;;;;;5036495;28;20036;-38
2021/09/29 09:51:05;;;;;;;11.20;7.53;;;15.70;64.30;;;;;;5036457;28;20029;-38
2021/09/29 09:53:32;;;;;;;7.18;5.90;;;15.70;64.20;;;;;;5042003;28;20040;-39
2021/09/29 09:55:58;;;;;;;9.93;6.68;;;15.70;64.00;;;;;;5056100;28;20039;-39
2021/09/29 09:58:24;;;;;;;11.55;8.40;;;15.70;63.80;;;;;;5056667;28;20021;-38
2021/09/29 10:00:58;;;;;;;10.18;6.95;;;15.60;63.80;;;;;;5056311;28;20025;-38
2021/09/29 10:03:27;;;;;;;13.32;7.03;;;15.60;64.00;;;;;;5056476;28;20067;-38
2021/09/29 10:05:54;;;;;;;9.18;5.88;;;15.50;63.80;;;;;;5056398;28;20028;-39
2021/09/29 10:08:26;;;;;;;19.55;7.20;;;15.40;63.60;;;;;;5056579;28;20043;-38
2021/09/29 10:28:12;;;;;;;13.23;9.68;;;14.90;64.60;;;;;;5036379;28;20296;-38
2021/09/29 10:30:48;;;;;;;13.02;9.05;;;14.80;64.60;;;;;;5036350;28;20033;-38
2021/09/29 10:33:22;;;;;;;11.10;7.13;;;14.80;64.80;;;;;;5038368;28;20147;-40
2021/09/29 10:41:10;;;;;;;13.45;9.07;;;14.60;65.00;;;;;;5055319;28;20473;-37
2021/09/29 11:05:57;;;;;;;9.18;6.05;;;14.80;64.30;;;;;;5055226;28;20338;-38
2021/09/29 11:30:40;;;;;;;5.82;4.43;;;15.20;62.00;;;;;;5054622;28;20048;-38
2021/09/29 12:10:30;;;;;;;6.78;4.90;;;15.60;59.90;;;;;;5054992;28;20033;-37
2021/09/29 12:12:56;;;;;;;7.78;4.70;;;15.60;59.90;;;;;;5054654;28;20128;-39
2021/09/29 12:15:23;;;;;;;9.35;5.22;;;15.60;59.70;;;;;;5054326;28;20040;-38
2021/09/29 12:17:51;;;;;;;8.70;5.18;;;15.60;59.60;;;;;;5054136;28;20175;-38
2021/09/29 12:20:27;;;;;;;9.63;5.90;;;15.60;59.50;;;;;;5049038;28;20026;-38
2021/09/29 12:23:01;;;;;;;13.13;4.93;;;15.50;59.30;;;;;;5037740;28;20037;-37
2021/09/29 12:25:43;;;;;;;6.53;4.78;;;15.50;59.20;;;;;;5049334;28;20426;-37
2021/09/29 12:36:33;;;;;;;6.72;5.03;;;15.30;59.00;;;;;;5038085;28;20048;-38
2021/09/29 12:39:03;;;;;;;10.18;5.97;;;15.30;59.10;;;;;;5038200;28;20486;-38
2021/09/29 12:41:31;;;;;;;7.57;5.13;;;15.30;59.30;;;;;;5037915;28;20117;-36
2021/09/29 12:44:00;;;;;;;13.10;5.20;;;15.20;59.50;;;;;;5038313;28;20025;-37
2021/09/29 12:46:26;;;;;;;7.88;5.78;;;15.20;59.10;;;;;;5038212;28;20087;-37
2021/09/29 12:48:52;;;;;;;7.55;5.15;;;15.20;59.10;;;;;;5038440;28;20357;-37
2021/09/29 12:51:20;;;;;;;5.88;4.63;;;15.20;59.20;;;;;;5037967;28;20060;-40
2021/09/29 12:53:59;;;;;;;6.50;5.13;;;15.10;59.30;;;;;;5037598;28;20438;-39
2021/09/29 12:56:25;;;;;;;6.95;4.97;;;15.10;59.20;;;;;;5037536;28;20049;-38
2021/09/29 12:58:51;;;;;;;7.40;4.97;;;15.10;59.40;;;;;;5038054;28;20034;-40
2021/09/29 13:01:17;;;;;;;8.70;5.63;;;15.10;59.30;;;;;;5037471;28;20040;-39
2021/09/29 13:03:43;;;;;;;19.42;8.52;;;15.10;59.60;;;;;;5037484;28;20037;-39
2021/09/29 13:06:12;;;;;;;30.23;22.90;;;15.10;59.90;;;;;;5037217;28;20033;-39
2021/09/29 13:08:38;;;;;;;17.65;12.52;;;15.00;59.90;;;;;;5037772;28;20037;-40
2021/09/29 13:11:04;;;;;;;10.88;8.30;;;15.00;59.90;;;;;;5036567;28;20072;-40
2021/09/29 13:13:30;;;;;;;10.32;6.47;;;15.00;60.00;;;;;;5037803;28;20029;-40
2021/09/29 13:15:59;;;;;;;11.40;7.63;;;15.00;60.00;;;;;;5037154;28;20045;-40
2021/09/29 13:37:22;;;;;;;8.35;6.10;;;14.80;59.90;;;;;;5056250;28;20036;-37
2021/09/29 13:39:50;;;;;;;9.25;6.22;;;14.80;60.00;;;;;;5056700;28;20021;-37
2021/09/29 13:42:16;;;;;;;7.93;5.15;;;14.70;59.90;;;;;;5056721;28;20029;-39
2021/09/29 13:44:41;;;;;;;7.55;5.70;;;14.70;60.00;;;;;;5056006;28;20317;-39
2021/09/29 13:47:07;;;;;;;9.15;5.70;;;14.70;59.80;;;;;;5056552;28;20028;-38
2021/09/29 13:49:33;;;;;;;9.20;5.40;;;14.70;59.50;;;;;;5056253;28;20481;-40
2021/09/29 13:51:59;;;;;;;6.65;5.22;;;14.70;59.30;;;;;;5056278;28;20071;-38
2021/09/29 13:54:26;;;;;;;7.65;4.70;;;14.70;59.20;;;;;;5056004;28;20056;-36
2021/09/29 14:33:59;;;;;;;9.82;6.07;;;14.30;59.40;;;;;;5055732;28;20047;-39
2021/09/29 14:36:25;;;;;;;8.23;5.05;;;14.30;59.60;;;;;;5055540;28;20044;-38
2021/09/29 14:38:51;;;;;;;7.45;5.50;;;14.30;59.60;;;;;;5056116;28;20100;-38
2021/09/29 14:41:17;;;;;;;8.10;4.88;;;14.30;59.70;;;;;;5055151;28;20460;-40
2021/09/29 14:43:42;;;;;;;9.23;5.10;;;14.30;59.70;;;;;;5055620;28;20028;-37
2021/09/29 14:46:08;;;;;;;7.40;5.32;;;14.30;59.80;;;;;;5054856;28;20045;-37
2021/09/29 14:48:34;;;;;;;6.95;5.60;;;14.30;59.60;;;;;;5054150;28;20029;-36
2021/09/29 14:51:04;;;;;;;8.00;5.43;;;14.30;59.70;;;;;;5055090;28;20072;-38
2021/09/29 14:53:32;;;;;;;9.90;5.40;;;14.20;59.40;;;;;;5055677;28;20052;-38
2021/09/29 14:55:58;;;;;;;10.35;5.85;;;14.20;59.40;;;;;;5054937;28;20041;-35
2021/09/29 14:58:25;;;;;;;18.08;13.35;;;14.20;59.30;;;;;;5055844;28;20032;-40
2021/09/29 15:00:52;;;;;;;11.90;7.20;;;14.20;59.30;;;;;;5055224;28;20033;-40
2021/09/29 15:03:18;;;;;;;16.75;9.82;;;14.20;59.20;;;;;;5053559;28;20032;-39
2021/09/29 15:05:43;;;;;;;9.05;5.93;;;14.10;59.30;;;;;;5055718;28;20029;-38
2021/09/29 15:08:09;;;;;;;7.53;5.57;;;14.20;59.40;;;;;;5054734;28;20051;-38
2021/09/29 15:10:35;;;;;;;7.93;4.88;;;14.10;59.50;;;;;;5054345;28;20021;-38
2021/09/29 15:13:04;;;;;;;8.02;5.68;;;14.10;59.50;;;;;;5055598;28;20398;-37
2021/09/29 15:15:35;;;;;;;8.63;5.07;;;14.10;59.50;;;;;;5054962;28;20029;-37
2021/09/29 15:18:11;;;;;;;10.55;7.05;;;14.10;59.50;;;;;;5054984;28;20083;-37
2021/09/29 15:23:26;;;;;;;8.65;5.70;;;14.10;59.50;;;;;;5055612;28;20036;-38
2021/09/29 15:47:56;;;;;;;46.25;20.75;;;13.90;58.60;;;;;;5055357;28;20090;-37
2021/09/29 15:50:33;;;;;;;19.35;10.25;;;13.90;58.70;;;;;;5055201;28;20120;-39
2021/09/29 16:05:59;;;;;;;22.58;10.35;;;13.70;59.90;;;;;;5058642;28;20021;-39
2021/09/29 16:08:47;;;;;;;23.70;11.55;;;13.70;59.90;;;;;;5058922;28;20029;-37
2021/09/29 16:22:03;;;;;;;16.60;10.55;;;13.60;60.70;;;;;;5058498;28;20032;-38
2021/09/29 16:35:11;;;;;;;11.75;6.65;;;13.50;60.60;;;;;;5058363;28;20037;-38
2021/09/29 16:37:37;;;;;;;11.52;8.10;;;13.50;60.60;;;;;;5058225;28;20471;-39
2021/09/29 16:40:04;;;;;;;12.70;8.43;;;13.50;60.80;;;;;;5058253;28;20037;-38
2021/09/29 16:42:29;;;;;;;13.43;8.48;;;13.50;60.90;;;;;;5057879;28;20029;-39
2021/09/29 16:45:03;;;;;;;12.10;7.65;;;13.40;60.90;;;;;;5058464;28;20029;-40
2021/09/29 16:47:29;;;;;;;14.27;8.82;;;13.40;61.10;;;;;;5058236;28;20427;-39
2021/09/29 16:49:56;;;;;;;12.52;8.48;;;13.40;61.30;;;;;;5057925;28;20047;-39
2021/09/29 16:54:47;;;;;;;12.02;9.00;;;13.40;61.70;;;;;;5057892;28;20064;-37
2021/09/29 16:57:17;;;;;;;14.65;9.70;;;13.30;61.80;;;;;;5057445;28;20329;-39
2021/09/29 16:59:50;;;;;;;17.38;9.95;;;13.30;62.00;;;;;;5057830;28;20036;-39
2021/09/29 17:02:16;;;;;;;24.95;13.70;;;13.30;62.10;;;;;;5058025;28;20349;-38
2021/09/29 17:04:45;;;;;;;27.02;15.40;;;13.30;62.30;;;;;;5057803;28;20052;-37
2021/09/29 17:07:11;;;;;;;19.80;11.82;;;13.20;62.30;;;;;;5057374;28;20061;-38
2021/09/29 17:09:37;;;;;;;19.48;11.38;;;13.20;62.50;;;;;;5056763;28;20056;-37